createdAt,value
2023-11-01T00:01:13.703Z,9.81
2023-11-01T00:03:41.570Z,9.84
2023-11-01T00:06:09.631Z,9.91
2023-11-01T00:08:37.363Z,9.90
2023-11-01T00:11:05.597Z,9.96
2023-11-01T00:13:33.402Z,9.96
2023-11-01T00:16:02.531Z,10.02
2023-11-01T00:18:30.246Z,9.98
2023-11-01T00:20:57.927Z,9.99
2023-11-01T00:23:25.643Z,9.96
2023-11-01T00:25:53.500Z,9.98
2023-11-01T00:28:21.241Z,10.01
2023-11-01T00:30:49.107Z,9.97
2023-11-01T00:33:18.303Z,9.97
2023-11-01T00:35:46.108Z,9.92
2023-11-01T00:38:13.868Z,9.89
2023-11-01T00:40:41.691Z,9.88
2023-11-01T00:43:09.428Z,9.90
2023-11-01T00:45:37.096Z,9.89
2023-11-01T00:48:05.495Z,9.89
2023-11-01T00:50:34.646Z,9.90
2023-11-01T00:53:02.342Z,9.90
2023-11-01T00:55:30.031Z,9.89
2023-11-01T00:57:57.749Z,9.88
2023-11-01T01:00:25.459Z,9.88
2023-11-01T01:02:53.248Z,9.86
2023-11-01T01:05:21.115Z,9.85
2023-11-01T01:07:50.669Z,9.89
2023-11-01T01:10:18.549Z,9.94
2023-11-01T01:12:46.614Z,10.01
2023-11-01T01:15:14.448Z,10.14
2023-11-01T01:17:42.193Z,10.10
2023-11-01T01:20:11.170Z,10.13
2023-11-01T01:22:38.803Z,10.08
2023-11-01T01:25:08.528Z,10.21
2023-11-01T01:27:36.243Z,10.19
2023-11-01T01:30:04.465Z,10.29
2023-11-01T01:32:33.580Z,10.26
2023-11-01T01:35:02.023Z,10.25
2023-11-01T01:37:30.119Z,10.26
2023-11-01T01:39:57.865Z,10.20
2023-11-01T01:42:27.132Z,10.19
2023-11-01T01:44:54.838Z,10.16
2023-11-01T01:47:22.832Z,10.13
2023-11-01T01:49:51.812Z,10.06
2023-11-01T01:52:20.416Z,10.03
2023-11-01T01:54:48.621Z,10.05
2023-11-01T01:57:17.262Z,10.03
2023-11-01T01:59:46.360Z,10.02
2023-11-01T02:02:15.225Z,9.99
2023-11-01T02:04:43.130Z,9.99
2023-11-01T02:07:11.248Z,10.01
2023-11-01T02:09:39.030Z,10.00
2023-11-01T02:12:07.078Z,10.02
2023-11-01T02:14:34.866Z,10.02
2023-11-01T02:17:07.633Z,10.03
2023-11-01T02:19:35.546Z,10.07
2023-11-01T02:22:03.465Z,10.14
2023-11-01T02:24:32.548Z,10.20
2023-11-01T02:27:01.903Z,10.19
2023-11-01T02:29:30.395Z,10.22
2023-11-01T02:31:58.144Z,10.19
2023-11-01T02:34:25.935Z,10.23
2023-11-01T02:36:53.634Z,10.25
2023-11-01T02:39:21.297Z,10.26
2023-11-01T02:41:50.424Z,10.30
2023-11-01T02:44:18.160Z,10.39
2023-11-01T02:46:45.820Z,10.39
2023-11-01T02:49:13.554Z,10.39
2023-11-01T02:51:41.677Z,10.50
2023-11-01T02:54:09.539Z,10.43
2023-11-01T02:56:37.278Z,10.48
2023-11-01T02:59:06.472Z,10.45
2023-11-01T03:01:34.763Z,10.46
2023-11-01T03:04:02.613Z,10.40
2023-11-01T03:06:30.333Z,10.43
2023-11-01T03:08:58.020Z,10.43
2023-11-01T03:11:25.759Z,10.40
2023-11-01T03:13:53.468Z,10.41
2023-11-01T03:16:22.531Z,10.44
2023-11-01T03:18:50.262Z,10.38
2023-11-01T03:21:17.930Z,10.37
2023-11-01T03:23:45.626Z,10.33
2023-11-01T03:26:13.434Z,10.29
2023-11-01T03:28:41.145Z,10.26
2023-11-01T03:31:08.946Z,10.29
2023-11-01T03:33:37.942Z,10.23
2023-11-01T03:36:08.225Z,10.21
2023-11-01T03:38:36.247Z,10.18
2023-11-01T03:41:04.706Z,10.20
2023-11-01T03:43:32.394Z,10.17
2023-11-01T03:46:00.176Z,10.18
2023-11-01T03:48:28.336Z,10.15
2023-11-01T03:50:57.514Z,10.16
2023-11-01T03:53:25.580Z,10.15
2023-11-01T03:55:53.376Z,10.16
2023-11-01T03:58:21.084Z,10.17
2023-11-01T04:00:48.778Z,10.16
2023-11-01T04:03:16.878Z,10.18
2023-11-01T04:05:44.753Z,10.19
2023-11-01T04:08:13.958Z,10.17
2023-11-01T04:10:41.698Z,10.19
2023-11-01T04:13:09.416Z,10.20
2023-11-01T04:15:37.266Z,10.23
2023-11-01T04:18:05.304Z,10.25
2023-11-01T04:20:33.085Z,10.25
2023-11-01T04:23:00.763Z,10.28
2023-11-01T04:25:30.238Z,10.34
2023-11-01T04:27:58.774Z,10.32
2023-11-01T04:30:27.808Z,10.29
2023-11-01T04:32:55.516Z,10.32
2023-11-01T04:35:23.203Z,10.34
2023-11-01T04:37:50.918Z,10.39
2023-11-01T04:40:20.049Z,10.40
2023-11-01T04:42:49.200Z,10.37
2023-11-01T04:45:16.885Z,10.39
2023-11-01T04:47:45.561Z,10.36
2023-11-01T04:50:15.619Z,10.38
2023-11-01T04:52:45.023Z,10.37
2023-11-01T04:55:13.078Z,10.41
2023-11-01T04:57:43.030Z,10.40
2023-11-01T05:00:17.324Z,10.41
2023-11-01T05:02:47.160Z,10.40
2023-11-01T05:05:15.509Z,10.48
2023-11-01T05:07:44.293Z,10.50
2023-11-01T05:10:12.010Z,10.46
2023-11-01T05:12:39.722Z,10.48
2023-11-01T05:15:10.062Z,10.45
2023-11-01T05:17:39.212Z,10.48
2023-11-01T05:20:08.346Z,10.45
2023-11-01T05:22:36.669Z,10.46
2023-11-01T05:25:14.359Z,10.51
2023-11-01T05:27:42.506Z,10.47
2023-11-01T05:30:15.507Z,10.47
2023-11-01T05:32:46.725Z,10.49
2023-11-01T05:35:14.985Z,10.47
2023-11-01T05:37:43.043Z,10.46
2023-11-01T05:40:15.420Z,10.48
2023-11-01T05:42:44.842Z,10.50
2023-11-01T05:45:16.964Z,10.51
2023-11-01T05:47:51.828Z,10.50
2023-11-01T05:50:21.098Z,10.50
2023-11-01T05:52:48.877Z,10.55
2023-11-01T05:55:24.041Z,10.55
2023-11-01T05:57:58.136Z,10.53
2023-11-01T06:00:25.822Z,10.52
2023-11-01T06:02:55.149Z,10.54
2023-11-01T06:05:24.008Z,10.55
2023-11-01T06:07:52.638Z,10.57
2023-11-01T06:10:20.674Z,10.61
2023-11-01T06:12:48.497Z,10.60
2023-11-01T06:15:16.457Z,10.59
2023-11-01T06:17:44.414Z,10.62
2023-11-01T06:20:13.825Z,10.65
2023-11-01T06:22:41.630Z,10.61
2023-11-01T06:25:11.599Z,10.61
2023-11-01T06:27:39.725Z,10.66
2023-11-01T06:30:08.612Z,10.71
2023-11-01T06:32:37.837Z,10.67
2023-11-01T06:35:06.907Z,10.70
2023-11-01T06:37:36.409Z,10.73
2023-11-01T06:40:04.762Z,10.73
2023-11-01T06:42:32.500Z,10.80
2023-11-01T06:45:00.199Z,10.83
2023-11-01T06:47:27.941Z,10.82
2023-11-01T06:49:55.739Z,10.88
2023-11-01T06:52:23.428Z,10.91
2023-11-01T06:54:52.685Z,10.91
2023-11-01T06:57:20.410Z,11.02
2023-11-01T06:59:48.216Z,11.04
2023-11-01T07:02:16.016Z,11.02
2023-11-01T07:04:43.750Z,11.11
2023-11-01T07:07:14.744Z,11.13
2023-11-01T07:09:43.255Z,11.14
2023-11-01T07:12:12.368Z,11.18
2023-11-01T07:14:40.110Z,11.23
2023-11-01T07:17:07.895Z,11.26
2023-11-01T07:19:35.607Z,11.29
2023-11-01T07:22:03.751Z,11.35
2023-11-01T07:24:31.663Z,11.33
2023-11-01T07:26:59.458Z,11.41
2023-11-01T07:29:28.634Z,11.42
2023-11-01T07:31:57.530Z,11.48
2023-11-01T07:34:25.708Z,11.46
2023-11-01T07:36:53.349Z,11.48
2023-11-01T07:39:21.089Z,11.57
2023-11-01T07:41:48.906Z,11.55
2023-11-01T07:44:16.702Z,11.56
2023-11-01T07:46:45.784Z,11.58
2023-11-01T07:49:13.660Z,11.61
2023-11-01T07:51:42.099Z,11.62
2023-11-01T07:54:10.621Z,11.65
2023-11-01T07:56:38.495Z,11.60
2023-11-01T07:59:06.453Z,11.74
2023-11-01T08:01:34.137Z,11.71
2023-11-01T08:04:03.332Z,11.83
2023-11-01T08:06:31.056Z,11.76
2023-11-01T08:08:59.616Z,11.80
2023-11-01T08:11:27.495Z,11.84
2023-11-01T08:13:55.290Z,11.91
2023-11-01T08:16:23.073Z,11.91
2023-11-01T08:18:50.771Z,11.98
2023-11-01T08:21:19.788Z,11.94
2023-11-01T08:23:47.644Z,11.91
2023-11-01T08:26:20.332Z,11.90
2023-11-01T08:28:48.298Z,11.97
2023-11-01T08:31:16.304Z,12.00
2023-11-01T08:33:44.959Z,11.97
2023-11-01T08:36:13.086Z,11.97
2023-11-01T08:38:42.571Z,12.04
2023-11-01T08:41:10.452Z,12.01
2023-11-01T08:43:38.303Z,12.00
2023-11-01T08:46:06.563Z,11.94
2023-11-01T08:48:34.490Z,11.96
2023-11-01T08:51:02.228Z,11.98
2023-11-01T08:53:32.254Z,11.99
2023-11-01T08:56:01.958Z,12.05
2023-11-01T08:58:29.862Z,12.06
2023-11-01T09:01:01.204Z,12.06
2023-11-01T09:03:30.762Z,12.09
2023-11-01T09:05:58.738Z,12.11
2023-11-01T09:08:26.537Z,12.15
2023-11-01T09:10:54.834Z,12.17
2023-11-01T09:13:24.601Z,12.20
2023-11-01T09:15:52.357Z,12.22
2023-11-01T09:18:22.565Z,12.21
2023-11-01T09:20:50.854Z,12.21
2023-11-01T09:23:20.113Z,12.18
2023-11-01T09:25:47.866Z,12.22
2023-11-01T09:28:15.777Z,12.24
2023-11-01T09:30:45.070Z,12.29
2023-11-01T09:33:12.958Z,12.28
2023-11-01T09:35:40.862Z,12.34
2023-11-01T09:38:09.859Z,12.43
2023-11-01T09:40:37.647Z,12.45
2023-11-01T09:43:06.665Z,12.45
2023-11-01T09:45:34.712Z,12.48
2023-11-01T09:48:04.135Z,12.49
2023-11-01T09:50:36.497Z,12.50
2023-11-01T09:53:05.111Z,12.59
2023-11-01T09:55:33.215Z,12.61
2023-11-01T09:58:01.841Z,12.64
2023-11-01T10:00:30.542Z,12.67
2023-11-01T10:02:59.149Z,12.63
2023-11-01T10:05:28.463Z,12.63
2023-11-01T10:07:57.575Z,12.69
2023-11-01T10:10:25.313Z,12.68
2023-11-01T10:12:54.076Z,12.66
2023-11-01T10:15:23.338Z,12.66
2023-11-01T10:17:52.768Z,12.72
2023-11-01T10:20:24.920Z,12.72
2023-11-01T10:22:54.061Z,12.78
2023-11-01T10:25:22.266Z,12.75
2023-11-01T10:27:50.972Z,12.78
2023-11-01T10:30:19.938Z,12.86
2023-11-01T10:32:58.878Z,12.87
2023-11-01T10:35:27.358Z,12.75
2023-11-01T10:37:59.508Z,12.75
2023-11-01T10:40:28.894Z,12.79
2023-11-01T10:42:59.631Z,12.76
2023-11-01T10:45:27.488Z,12.73
2023-11-01T10:47:55.632Z,12.66
2023-11-01T10:50:24.721Z,12.65
2023-11-01T10:52:52.831Z,12.58
2023-11-01T10:55:25.275Z,12.60
2023-11-01T10:57:53.779Z,12.62
2023-11-01T11:00:27.975Z,12.68
2023-11-01T11:03:00.504Z,12.71
2023-11-01T11:05:29.934Z,12.73
2023-11-01T11:07:58.666Z,12.72
2023-11-01T11:10:28.886Z,12.70
2023-11-01T11:13:39.414Z,12.76
2023-11-01T11:16:09.766Z,12.79
2023-11-01T11:19:00.213Z,12.81
2023-11-01T11:22:04.151Z,12.86
2023-11-01T11:24:53.587Z,12.87
2023-11-01T11:27:54.182Z,12.91
2023-11-01T11:30:58.504Z,12.97
2023-11-01T11:33:26.451Z,13.04
2023-11-01T11:36:15.038Z,13.14
2023-11-01T11:38:53.578Z,13.18
2023-11-01T11:41:22.715Z,13.16
2023-11-01T11:44:05.038Z,13.17
2023-11-01T11:46:35.996Z,13.13
2023-11-01T11:49:05.869Z,13.10
2023-11-01T11:51:35.879Z,13.04
2023-11-01T11:54:14.880Z,13.09
2023-11-01T11:56:43.040Z,13.07
2023-11-01T11:59:12.981Z,13.05
2023-11-01T12:01:40.725Z,13.12
2023-11-01T12:04:09.646Z,13.16
2023-11-01T12:06:45.212Z,13.12
2023-11-01T12:09:19.944Z,13.15
2023-11-01T12:11:49.253Z,13.15
2023-11-01T12:14:22.589Z,13.20
2023-11-01T12:16:51.398Z,13.31
2023-11-01T12:19:20.304Z,13.26
2023-11-01T12:21:49.925Z,13.29
2023-11-01T12:24:18.426Z,13.30
2023-11-01T12:27:04.958Z,13.30
2023-11-01T12:29:35.945Z,13.28
2023-11-01T12:32:08.305Z,13.25
2023-11-01T12:34:37.608Z,13.25
2023-11-01T12:37:09.120Z,13.24
2023-11-01T12:39:37.039Z,13.28
2023-11-01T12:42:24.822Z,13.30
2023-11-01T12:44:55.826Z,13.38
2023-11-01T12:47:25.409Z,13.37
2023-11-01T12:49:54.918Z,13.44
2023-11-01T12:52:22.808Z,13.45
2023-11-01T12:54:50.565Z,13.35
2023-11-01T12:57:18.690Z,13.35
2023-11-01T12:59:46.538Z,13.37
2023-11-01T13:02:15.757Z,13.39
2023-11-01T13:04:44.349Z,13.38
2023-11-01T13:07:12.572Z,13.41
2023-11-01T13:09:40.320Z,13.48
2023-11-01T13:12:10.761Z,13.48
2023-11-01T13:14:39.613Z,13.48
2023-11-01T13:17:07.651Z,13.56
2023-11-01T13:19:36.996Z,13.64
2023-11-01T13:22:05.193Z,13.79
2023-11-01T13:24:32.936Z,13.68
2023-11-01T13:27:04.945Z,13.57
2023-11-01T13:29:32.714Z,13.56
2023-11-01T13:32:00.621Z,13.54
2023-11-01T13:34:28.322Z,13.50
2023-11-01T13:36:57.360Z,13.49
2023-11-01T13:39:25.378Z,13.46
2023-11-01T13:41:53.755Z,13.48
2023-11-01T13:44:21.822Z,13.44
2023-11-01T13:46:49.728Z,13.45
2023-11-01T13:49:22.284Z,13.45
2023-11-01T13:51:55.666Z,13.38
2023-11-01T13:54:24.894Z,13.36
2023-11-01T13:56:59.082Z,13.39
2023-11-01T13:59:35.960Z,13.39
2023-11-01T14:02:06.386Z,13.36
2023-11-01T14:04:44.705Z,13.33
2023-11-01T14:07:13.424Z,13.30
2023-11-01T14:09:46.520Z,13.35
2023-11-01T14:12:14.385Z,13.32
2023-11-01T14:14:44.466Z,13.31
2023-11-01T14:17:12.419Z,13.24
2023-11-01T14:19:40.149Z,13.22
2023-11-01T14:22:07.848Z,13.27
2023-11-01T14:24:35.692Z,13.24
2023-11-01T14:27:07.375Z,13.17
2023-11-01T14:29:35.766Z,13.23
2023-11-01T14:32:04.719Z,13.22
2023-11-01T14:34:32.900Z,13.11
2023-11-01T14:37:11.098Z,13.08
2023-11-01T14:39:39.647Z,13.12
2023-11-01T14:42:10.209Z,13.10
2023-11-01T14:44:41.076Z,13.00
2023-11-01T14:47:11.156Z,13.11
2023-11-01T14:49:39.719Z,12.97
2023-11-01T14:52:08.502Z,13.01
2023-11-01T14:54:41.943Z,13.11
2023-11-01T14:57:17.193Z,13.12
2023-11-01T14:59:45.091Z,13.00
2023-11-01T15:02:12.953Z,12.99
2023-11-01T15:04:40.705Z,12.92
2023-11-01T15:07:08.620Z,12.86
2023-11-01T15:09:36.371Z,12.83
2023-11-01T15:12:03.135Z,12.81
2023-11-01T15:14:33.072Z,12.74
2023-11-01T15:17:00.917Z,12.70
2023-11-01T15:19:28.994Z,12.65
2023-11-01T15:21:57.490Z,12.60
2023-11-01T15:24:26.263Z,12.57
2023-11-01T15:26:55.418Z,12.56
2023-11-01T15:29:23.436Z,12.54
2023-11-01T15:31:53.752Z,12.45
2023-11-01T15:34:21.737Z,12.45
2023-11-01T15:36:49.817Z,12.39
2023-11-01T15:39:18.188Z,12.38
2023-11-01T15:41:45.910Z,12.37
2023-11-01T15:44:13.663Z,12.32
2023-11-01T15:46:44.391Z,12.30
2023-11-01T15:49:17.394Z,12.25
2023-11-01T15:51:47.068Z,12.24
2023-11-01T15:54:16.949Z,12.20
2023-11-01T15:56:46.185Z,12.20
2023-11-01T15:59:15.328Z,12.18
2023-11-01T16:01:45.276Z,12.15
2023-11-01T16:04:13.145Z,12.14
2023-11-01T16:06:49.358Z,12.17
2023-11-01T16:09:19.366Z,12.14
2023-11-01T16:11:49.130Z,12.14
2023-11-01T16:14:17.719Z,12.12
2023-11-01T16:16:47.520Z,12.13
2023-11-01T16:19:15.313Z,12.09
2023-11-01T16:21:45.630Z,12.17
2023-11-01T16:24:14.138Z,12.14
2023-11-01T16:26:42.312Z,12.16
2023-11-01T16:29:10.050Z,12.12
2023-11-01T16:31:37.811Z,12.06
2023-11-01T16:34:05.656Z,12.08
2023-11-01T16:36:33.382Z,12.02
2023-11-01T16:39:02.546Z,12.03
2023-11-01T16:41:30.591Z,12.04
2023-11-01T16:43:58.354Z,11.92
2023-11-01T16:46:26.511Z,11.95
2023-11-01T16:48:54.347Z,11.99
2023-11-01T16:51:22.216Z,11.92
2023-11-01T16:53:50.026Z,11.90
2023-11-01T16:56:19.197Z,11.84
2023-11-01T16:58:46.994Z,11.83
2023-11-01T17:01:14.789Z,11.84
2023-11-01T17:03:42.663Z,11.83
2023-11-01T17:06:11.566Z,11.79
2023-11-01T17:08:39.369Z,11.72
2023-11-01T17:11:07.047Z,11.67
2023-11-01T17:13:36.132Z,11.59
2023-11-01T17:16:04.074Z,11.64
2023-11-01T17:18:32.056Z,11.61
2023-11-01T17:20:59.972Z,11.55
2023-11-01T17:23:27.983Z,11.56
2023-11-01T17:26:31.619Z,11.55
2023-11-01T17:29:01.712Z,11.56
2023-11-01T17:31:40.476Z,11.60
2023-11-01T17:34:09.231Z,11.52
2023-11-01T17:36:37.542Z,11.56
2023-11-01T17:39:07.223Z,11.52
2023-11-01T17:41:55.319Z,11.58
2023-11-01T17:44:25.970Z,11.52
2023-11-01T17:47:00.007Z,11.55
2023-11-01T17:49:54.304Z,11.54
2023-11-01T17:52:36.757Z,11.53
2023-11-01T17:55:07.766Z,11.42
2023-11-01T17:57:36.702Z,11.52
2023-11-01T18:00:07.576Z,11.55
2023-11-01T18:03:08.341Z,11.56
2023-11-01T18:05:37.970Z,11.55
2023-11-01T18:08:09.825Z,11.55
2023-11-01T18:10:42.271Z,11.50
2023-11-01T18:13:19.616Z,11.52
2023-11-01T18:15:49.955Z,11.49
2023-11-01T18:18:32.725Z,11.47
2023-11-01T18:21:07.856Z,11.44
2023-11-01T18:23:36.024Z,11.44
2023-11-01T18:26:08.939Z,11.38
2023-11-01T18:28:41.622Z,11.38
2023-11-01T18:31:23.132Z,11.33
2023-11-01T18:33:56.128Z,11.30
2023-11-01T18:36:24.620Z,11.41
2023-11-01T18:38:55.163Z,11.36
2023-11-01T18:41:30.845Z,11.36
2023-11-01T18:43:58.765Z,11.35
2023-11-01T18:46:33.187Z,11.35
2023-11-01T18:49:00.961Z,11.36
2023-11-01T18:51:57.935Z,11.38
2023-11-01T18:54:39.227Z,11.35
2023-11-01T18:57:09.203Z,11.40
2023-11-01T18:59:37.174Z,11.37
2023-11-01T19:02:10.860Z,11.34
2023-11-01T19:04:38.772Z,11.31
2023-11-01T19:07:08.214Z,11.30
2023-11-01T19:09:36.118Z,11.31
2023-11-01T19:12:04.351Z,11.28
2023-11-01T19:14:38.687Z,11.29
2023-11-01T19:17:08.197Z,11.28
2023-11-01T19:19:35.947Z,11.19
2023-11-01T19:22:04.061Z,11.20
2023-11-01T19:24:31.815Z,11.17
2023-11-01T19:27:02.640Z,11.11
2023-11-01T19:29:34.513Z,11.00
2023-11-01T19:32:02.198Z,11.02
2023-11-01T19:34:31.795Z,10.98
2023-11-01T19:37:00.043Z,10.95
2023-11-01T19:39:27.730Z,10.96
2023-11-01T19:41:55.484Z,10.91
2023-11-01T19:44:23.205Z,10.90
2023-11-01T19:46:50.902Z,10.91
2023-11-01T19:49:18.561Z,10.87
2023-11-01T19:51:47.619Z,10.90
2023-11-01T19:54:15.395Z,10.87
2023-11-01T19:56:43.515Z,10.80
2023-11-01T19:59:12.234Z,10.77
2023-11-01T20:01:40.489Z,10.81
2023-11-01T20:04:08.329Z,10.75
2023-11-01T20:06:36.086Z,10.67
2023-11-01T20:09:07.922Z,10.64
2023-11-01T20:11:35.693Z,10.63
2023-11-01T20:14:03.756Z,10.69
2023-11-01T20:16:31.504Z,10.65
2023-11-01T20:19:01.042Z,10.61
2023-11-01T20:21:28.785Z,10.58
2023-11-01T20:23:56.482Z,10.55
2023-11-01T20:26:25.655Z,10.51
2023-11-01T20:28:53.498Z,10.52
2023-11-01T20:31:21.238Z,10.51
2023-11-01T20:33:50.810Z,10.48
2023-11-01T20:36:18.781Z,10.47
2023-11-01T20:38:46.524Z,10.49
2023-11-01T20:41:14.940Z,10.43
2023-11-01T20:43:43.998Z,10.40
2023-11-01T20:46:12.781Z,10.37
2023-11-01T20:48:40.768Z,10.32
2023-11-01T20:51:12.934Z,10.32
2023-11-01T20:53:42.945Z,10.29
2023-11-01T20:56:11.077Z,10.31
2023-11-01T20:58:38.748Z,10.29
2023-11-01T21:01:07.957Z,10.32
2023-11-01T21:03:35.785Z,10.26
2023-11-01T21:06:04.110Z,10.21
2023-11-01T21:08:33.786Z,10.17
2023-11-01T21:11:01.462Z,10.20
2023-11-01T21:13:31.395Z,10.14
2023-11-01T21:16:00.846Z,10.12
2023-11-01T21:18:31.996Z,10.12
2023-11-01T21:21:01.735Z,10.13
2023-11-01T21:23:29.807Z,10.07
2023-11-01T21:25:57.641Z,10.05
2023-11-01T21:28:25.295Z,10.07
2023-11-01T21:30:53.008Z,9.96
2023-11-01T21:33:22.479Z,9.99
2023-11-01T21:35:51.761Z,9.99
2023-11-01T21:38:19.503Z,9.99
2023-11-01T21:40:47.784Z,9.95
2023-11-01T21:43:18.176Z,9.91
2023-11-01T21:45:52.718Z,9.88
2023-11-01T21:48:23.314Z,9.88
2023-11-01T21:50:58.424Z,9.86
2023-11-01T21:53:29.540Z,9.86
2023-11-01T21:55:59.679Z,9.84
2023-11-01T21:58:29.238Z,9.83
2023-11-01T22:00:59.861Z,9.77
2023-11-01T22:03:38.691Z,9.68
2023-11-01T22:06:12.992Z,9.65
2023-11-01T22:09:02.389Z,9.67
2023-11-01T22:11:32.018Z,9.61
2023-11-01T22:14:01.213Z,9.60
2023-11-01T22:16:30.508Z,9.55
2023-11-01T22:19:03.542Z,9.59
2023-11-01T22:21:36.640Z,9.53
2023-11-01T22:24:05.243Z,9.48
2023-11-01T22:26:33.703Z,9.37
2023-11-01T22:29:03.308Z,9.45
2023-11-01T22:31:52.022Z,9.41
2023-11-01T22:34:22.147Z,9.36
2023-11-01T22:36:53.488Z,9.38
2023-11-01T22:39:40.047Z,9.40
2023-11-01T22:42:10.074Z,9.40
2023-11-01T22:44:37.810Z,9.35
2023-11-01T22:47:06.006Z,9.30
2023-11-01T22:49:33.708Z,9.29
2023-11-01T22:52:02.954Z,9.27
2023-11-01T22:54:30.789Z,9.30
2023-11-01T22:56:59.134Z,9.30
2023-11-01T23:02:19.039Z,9.24
2023-11-01T23:04:46.809Z,9.25
2023-11-01T23:07:16.165Z,9.21
2023-11-01T23:09:43.933Z,9.22
2023-11-01T23:12:12.516Z,9.26
2023-11-01T23:14:40.231Z,9.29
2023-11-01T23:17:09.220Z,9.27
2023-11-01T23:19:37.022Z,9.24
2023-11-01T23:22:04.887Z,9.26
2023-11-01T23:24:33.880Z,9.20
2023-11-01T23:27:05.847Z,9.18
2023-11-01T23:29:35.342Z,9.18
2023-11-01T23:32:08.359Z,9.20
2023-11-01T23:34:45.430Z,9.23
2023-11-01T23:37:23.793Z,9.25
2023-11-01T23:39:53.025Z,9.21
2023-11-01T23:42:21.834Z,9.22
2023-11-01T23:44:50.242Z,9.18
2023-11-01T23:47:38.794Z,9.18
2023-11-01T23:50:13.487Z,9.13
2023-11-01T23:52:41.981Z,9.12
2023-11-01T23:55:11.401Z,9.12
2023-11-01T23:57:39.157Z,9.25
